createdAt,value
2022-08-03T00:00:36.742Z,101413.47
2022-08-03T00:03:05.505Z,101412.31
2022-08-03T00:05:33.986Z,101413.75
2022-08-03T00:08:02.569Z,101412.03
2022-08-03T00:10:32.083Z,101407.34
2022-08-03T00:13:02.584Z,101403.06
2022-08-03T00:15:34.408Z,101402.50
2022-08-03T00:18:10.076Z,101403.72
2022-08-03T00:20:39.567Z,101408.59
2022-08-03T00:23:08.809Z,101402.38
2022-08-03T00:25:39.155Z,101406.13
2022-08-03T00:28:09.763Z,101410.13
2022-08-03T00:30:38.625Z,101408.59
2022-08-03T00:33:10.286Z,101411.63
2022-08-03T00:35:51.034Z,101411.69
2022-08-03T00:38:19.329Z,101405.28
2022-08-03T00:40:48.824Z,101401.41
2022-08-03T00:43:17.304Z,101398.63
2022-08-03T00:45:45.490Z,101400.94
2022-08-03T00:48:32.899Z,101403.13
2022-08-03T00:51:02.083Z,101397.91
2022-08-03T00:53:30.360Z,101398.38
2022-08-03T00:56:00.362Z,101394.25
2022-08-03T00:58:28.589Z,101396.09
2022-08-03T01:00:56.704Z,101396.81
2022-08-03T01:03:25.012Z,101394.03
2022-08-03T01:05:57.039Z,101387.00
2022-08-03T01:08:47.286Z,101395.38
2022-08-03T01:11:25.230Z,101398.94
2022-08-03T01:14:18.094Z,101389.91
2022-08-03T01:16:53.449Z,101387.53
2022-08-03T01:19:39.980Z,101384.91
2022-08-03T01:22:25.072Z,101387.97
2022-08-03T01:25:03.947Z,101378.38
2022-08-03T01:27:44.511Z,101376.72
2022-08-03T01:30:14.248Z,101381.50
2022-08-03T01:32:53.579Z,101387.28
2022-08-03T01:35:38.540Z,101380.72
2022-08-03T01:38:12.618Z,101375.13
2022-08-03T01:40:42.627Z,101373.19
2022-08-03T01:43:13.288Z,101369.69
2022-08-03T01:45:45.828Z,101374.88
2022-08-03T01:48:17.190Z,101372.91
2022-08-03T01:50:47.508Z,101360.47
2022-08-03T01:53:18.878Z,101366.47
2022-08-03T01:55:48.407Z,101359.19
2022-08-03T01:58:22.778Z,101364.78
2022-08-03T02:00:54.910Z,101361.78
2022-08-03T02:03:28.352Z,101362.16
2022-08-03T02:06:40.966Z,101357.19
2022-08-03T02:08:52.454Z,101358.53
2022-08-03T02:11:23.105Z,101357.78
2022-08-03T02:13:52.758Z,101357.69
2022-08-03T02:16:23.413Z,101345.53
2022-08-03T02:18:52.704Z,101354.22
2022-08-03T02:21:56.965Z,101347.09
2022-08-03T02:24:12.272Z,101349.19
2022-08-03T02:26:42.812Z,101347.56
2022-08-03T02:29:18.424Z,101356.88
2022-08-03T02:31:50.383Z,101350.63
2022-08-03T02:34:22.332Z,101350.63
2022-08-03T02:36:55.317Z,101346.81
2022-08-03T02:39:32.039Z,101346.81
2022-08-03T02:42:05.165Z,101354.53
2022-08-03T02:44:37.057Z,101346.66
2022-08-03T02:47:13.208Z,101345.81
2022-08-03T02:49:50.584Z,101344.72
2022-08-03T02:52:23.679Z,101339.63
2022-08-03T02:54:56.470Z,101342.56
2022-08-03T02:57:29.837Z,101337.25
2022-08-03T03:00:02.678Z,101336.09
2022-08-03T03:02:34.029Z,101329.88
2022-08-03T03:05:55.893Z,101328.63
2022-08-03T03:07:56.629Z,101335.94
2022-08-03T03:10:28.698Z,101331.06
2022-08-03T03:13:01.659Z,101341.28
2022-08-03T03:15:32.979Z,101337.28
2022-08-03T03:18:06.978Z,101334.19
2022-08-03T03:20:35.883Z,101335.75
2022-08-03T03:23:07.023Z,101324.22
2022-08-03T03:25:38.031Z,101334.19
2022-08-03T03:28:08.864Z,101339.13
2022-08-03T03:30:39.898Z,101332.56
2022-08-03T03:33:09.852Z,101337.94
2022-08-03T03:35:39.220Z,101333.25
2022-08-03T03:38:08.129Z,101333.63
2022-08-03T03:40:36.724Z,101331.75
2022-08-03T03:43:08.054Z,101332.19
2022-08-03T03:45:36.729Z,101334.06
2022-08-03T03:48:06.140Z,101338.38
2022-08-03T03:50:37.625Z,101332.28
2022-08-03T03:53:05.993Z,101327.97
2022-08-03T03:55:37.453Z,101324.09
2022-08-03T03:58:25.326Z,101332.84
2022-08-03T04:00:53.928Z,101332.41
2022-08-03T04:03:22.338Z,101336.44
2022-08-03T04:06:09.706Z,101329.84
2022-08-03T04:08:55.132Z,101333.78
2022-08-03T04:11:29.073Z,101333.06
2022-08-03T04:14:02.218Z,101331.38
2022-08-03T04:16:33.587Z,101333.72
2022-08-03T04:19:06.070Z,101325.56
2022-08-03T04:21:38.474Z,101334.66
2022-08-03T04:24:10.913Z,101342.09
2022-08-03T04:26:42.701Z,101343.97
2022-08-03T04:29:12.745Z,101351.44
2022-08-03T04:31:43.084Z,101356.34
2022-08-03T04:34:11.519Z,101350.19
2022-08-03T04:36:49.151Z,101351.31
2022-08-03T04:39:21.353Z,101347.00
2022-08-03T04:42:07.535Z,101357.47
2022-08-03T04:44:38.783Z,101354.94
2022-08-03T04:47:07.009Z,101358.75
2022-08-03T04:49:37.605Z,101362.81
2022-08-03T04:52:09.932Z,101358.16
2022-08-03T04:54:41.528Z,101360.91
2022-08-03T04:57:09.663Z,101367.50
2022-08-03T04:59:39.143Z,101371.75
2022-08-03T05:02:09.573Z,101369.00
2022-08-03T05:04:38.077Z,101367.88
2022-08-03T05:07:12.231Z,101361.97
2022-08-03T05:09:52.281Z,101375.19
2022-08-03T05:12:20.539Z,101365.00
2022-08-03T05:14:48.606Z,101373.06
2022-08-03T05:17:16.648Z,101372.84
2022-08-03T05:19:45.084Z,101383.25
2022-08-03T05:22:14.603Z,101378.56
2022-08-03T05:24:42.999Z,101381.28
2022-08-03T05:27:17.543Z,101379.19
2022-08-03T05:29:46.563Z,101379.84
2022-08-03T05:32:15.132Z,101369.81
2022-08-03T05:34:48.925Z,101377.28
2022-08-03T05:37:21.807Z,101379.81
2022-08-03T05:39:52.653Z,101372.41
2022-08-03T05:42:21.899Z,101374.28
2022-08-03T05:44:52.918Z,101372.19
2022-08-03T05:47:28.409Z,101367.69
2022-08-03T05:50:00.073Z,101367.69
2022-08-03T05:52:30.333Z,101367.88
2022-08-03T05:55:00.379Z,101359.34
2022-08-03T05:57:30.951Z,101366.81
2022-08-03T05:59:59.867Z,101372.56
2022-08-03T06:02:30.572Z,101368.91
2022-08-03T06:05:01.196Z,101371.59
2022-08-03T06:07:32.855Z,101373.31
2022-08-03T06:10:36.062Z,101378.41
2022-08-03T06:12:56.925Z,101379.50
2022-08-03T06:15:28.036Z,101383.31
2022-08-03T06:18:02.033Z,101378.63
2022-08-03T06:20:34.309Z,101384.16
2022-08-03T06:23:08.172Z,101379.28
2022-08-03T06:25:45.368Z,101383.06
2022-08-03T06:28:42.677Z,101376.69
2022-08-03T06:31:07.548Z,101382.13
2022-08-03T06:34:30.602Z,101379.63
2022-08-03T06:36:24.326Z,101384.28
2022-08-03T06:38:56.316Z,101378.53
2022-08-03T06:41:25.607Z,101371.22
2022-08-03T06:44:03.229Z,101373.94
2022-08-03T06:46:36.020Z,101376.94
2022-08-03T06:49:07.436Z,101375.00
2022-08-03T06:52:03.249Z,101380.97
2022-08-03T06:54:27.753Z,101379.16
2022-08-03T06:56:57.588Z,101376.13
2022-08-03T07:00:07.550Z,101383.06
2022-08-03T07:02:20.117Z,101378.91
2022-08-03T07:04:49.109Z,101386.81
2022-08-03T07:07:19.753Z,101386.97
2022-08-03T07:09:56.504Z,101382.16
2022-08-03T07:12:33.955Z,101384.50
2022-08-03T07:15:05.700Z,101388.84
2022-08-03T07:17:36.914Z,101380.00
2022-08-03T07:20:08.074Z,101385.47
2022-08-03T07:22:38.718Z,101384.13
2022-08-03T07:25:11.602Z,101391.69
2022-08-03T07:27:48.850Z,101387.25
2022-08-03T07:30:22.044Z,101395.91
2022-08-03T07:32:50.966Z,101396.88
2022-08-03T07:35:25.057Z,101393.19
2022-08-03T07:37:54.469Z,101390.78
2022-08-03T07:40:25.122Z,101397.34
2022-08-03T07:42:59.281Z,101398.94
2022-08-03T07:45:27.708Z,101390.88
2022-08-03T07:47:55.805Z,101391.38
2022-08-03T07:50:24.427Z,101390.69
2022-08-03T07:52:53.739Z,101391.69
2022-08-03T07:55:23.361Z,101396.53
2022-08-03T07:58:03.029Z,101394.56
2022-08-03T08:00:31.568Z,101392.22
2022-08-03T08:02:59.650Z,101395.25
2022-08-03T08:05:28.334Z,101404.81
2022-08-03T08:07:56.445Z,101403.97
2022-08-03T08:10:24.672Z,101404.56
2022-08-03T08:12:53.049Z,101409.06
2022-08-03T08:15:22.740Z,101398.78
2022-08-03T08:17:53.657Z,101399.66
2022-08-03T08:20:30.843Z,101404.25
2022-08-03T08:23:01.170Z,101402.72
2022-08-03T08:25:30.687Z,101410.31
2022-08-03T08:28:29.785Z,101413.09
2022-08-03T08:30:51.460Z,101401.28
2022-08-03T08:33:23.555Z,101404.66
2022-08-03T08:35:54.447Z,101412.31
2022-08-03T08:38:25.672Z,101410.97
2022-08-03T08:40:57.888Z,101409.19
2022-08-03T08:43:31.256Z,101416.13
2022-08-03T08:46:01.760Z,101419.13
2022-08-03T08:48:33.829Z,101423.13
2022-08-03T08:51:06.118Z,101422.91
2022-08-03T08:53:41.176Z,101415.53
2022-08-03T08:56:12.975Z,101416.13
2022-08-03T08:58:47.154Z,101422.91
2022-08-03T09:01:20.560Z,101426.47
2022-08-03T09:03:51.034Z,101423.31
2022-08-03T09:06:20.588Z,101427.81
2022-08-03T09:08:51.424Z,101435.69
2022-08-03T09:11:57.760Z,101426.47
2022-08-03T09:14:36.961Z,101426.84
2022-08-03T09:17:08.307Z,101427.22
2022-08-03T09:20:09.426Z,101422.75
2022-08-03T09:22:53.240Z,101419.13
2022-08-03T09:25:27.334Z,101418.06
2022-08-03T09:27:58.457Z,101418.16
2022-08-03T09:30:34.715Z,101422.16
2022-08-03T09:33:08.131Z,101416.13
2022-08-03T09:35:58.268Z,101425.19
2022-08-03T09:38:30.452Z,101423.50
2022-08-03T09:41:00.777Z,101420.22
2022-08-03T09:43:48.199Z,101416.38
2022-08-03T09:46:20.297Z,101415.03
2022-08-03T09:48:54.270Z,101412.88
2022-08-03T09:52:28.800Z,101408.97
2022-08-03T09:54:30.878Z,101415.75
2022-08-03T09:57:02.318Z,101413.22
2022-08-03T09:59:34.500Z,101420.97
2022-08-03T10:02:05.664Z,101418.06
2022-08-03T10:04:49.432Z,101407.03
2022-08-03T10:07:21.314Z,101412.63
2022-08-03T10:10:31.200Z,101414.22
2022-08-03T10:12:55.683Z,101412.34
2022-08-03T10:16:25.185Z,101414.91
2022-08-03T10:18:18.953Z,101409.94
2022-08-03T10:20:54.623Z,101412.63
2022-08-03T10:23:26.212Z,101407.91
2022-08-03T10:26:04.709Z,101405.47
2022-08-03T10:28:44.815Z,101415.63
2022-08-03T10:31:17.186Z,101409.84
2022-08-03T10:33:53.190Z,101418.44
2022-08-03T10:36:25.029Z,101414.44
2022-08-03T10:38:55.375Z,101409.69
2022-08-03T10:41:27.913Z,101405.94
2022-08-03T10:44:03.306Z,101403.63
2022-08-03T10:46:32.336Z,101414.50
2022-08-03T10:49:02.808Z,101407.44
2022-08-03T10:51:34.399Z,101411.09
2022-08-03T10:54:04.574Z,101404.78
2022-08-03T10:57:10.966Z,101398.56
2022-08-03T11:00:08.093Z,101401.00
2022-08-03T11:03:04.847Z,101403.28
2022-08-03T11:05:37.397Z,101403.28
2022-08-03T11:08:38.150Z,101403.28
2022-08-03T11:11:31.945Z,101404.16
2022-08-03T11:14:03.662Z,101392.56
2022-08-03T11:16:35.616Z,101392.50
2022-08-03T11:19:07.768Z,101402.78
2022-08-03T11:21:56.862Z,101397.91
2022-08-03T11:25:05.579Z,101389.56
2022-08-03T11:27:38.182Z,101386.16
2022-08-03T11:30:12.385Z,101386.84
2022-08-03T11:33:01.864Z,101385.59
2022-08-03T11:35:36.787Z,101394.13
2022-08-03T11:38:13.150Z,101391.53
2022-08-03T11:40:49.538Z,101380.72
2022-08-03T11:43:49.391Z,101385.88
2022-08-03T11:46:29.798Z,101384.28
2022-08-03T11:49:10.991Z,101398.06
2022-08-03T11:51:42.283Z,101396.97
2022-08-03T11:54:13.629Z,101390.38
2022-08-03T11:56:51.473Z,101392.00
2022-08-03T11:59:34.326Z,101379.34
2022-08-03T12:02:09.564Z,101396.84
2022-08-03T12:04:53.229Z,101396.59
2022-08-03T12:07:24.411Z,101399.78
2022-08-03T12:10:16.793Z,101396.56
2022-08-03T12:12:48.173Z,101390.00
2022-08-03T12:15:18.171Z,101384.69
2022-08-03T12:17:49.774Z,101389.56
2022-08-03T12:20:31.284Z,101394.78
2022-08-03T12:23:07.758Z,101390.75
2022-08-03T12:25:39.589Z,101391.91
2022-08-03T12:28:36.479Z,101385.91
2022-08-03T12:31:12.405Z,101391.22
2022-08-03T12:33:59.161Z,101389.00
2022-08-03T12:36:28.554Z,101381.88
2022-08-03T12:38:57.917Z,101383.91
2022-08-03T12:41:31.025Z,101392.09
2022-08-03T12:44:00.308Z,101393.81
2022-08-03T12:46:32.955Z,101398.84
2022-08-03T12:49:03.553Z,101392.16
2022-08-03T12:51:34.350Z,101388.28
2022-08-03T12:54:03.018Z,101384.69
2022-08-03T12:56:31.199Z,101394.84
2022-08-03T12:59:00.509Z,101394.91
2022-08-03T13:01:37.960Z,101399.09
2022-08-03T13:04:33.207Z,101395.25
2022-08-03T13:07:03.614Z,101398.34
2022-08-03T13:09:41.752Z,101394.72
2022-08-03T13:12:11.817Z,101387.75
2022-08-03T13:14:41.624Z,101393.41
2022-08-03T13:17:09.887Z,101389.53
2022-08-03T13:19:38.628Z,101402.22
2022-08-03T13:22:14.447Z,101396.19
2022-08-03T13:24:43.619Z,101400.72
2022-08-03T13:28:12.469Z,101410.50
2022-08-03T13:30:01.914Z,101401.53
2022-08-03T13:32:29.949Z,101401.59
2022-08-03T13:35:00.984Z,101398.53
2022-08-03T13:37:32.205Z,101396.94
2022-08-03T13:40:04.826Z,101396.94
2022-08-03T13:42:35.856Z,101386.53
2022-08-03T13:45:06.708Z,101391.59
2022-08-03T13:47:34.878Z,101385.69
2022-08-03T13:50:03.337Z,101393.34
2022-08-03T13:52:33.706Z,101381.59
2022-08-03T13:55:02.366Z,101390.59
2022-08-03T13:58:04.031Z,101385.53
2022-08-03T14:00:27.226Z,101390.34
2022-08-03T14:03:02.809Z,101374.03
2022-08-03T14:05:34.077Z,101376.03
2022-08-03T14:08:04.737Z,101384.69
2022-08-03T14:10:34.736Z,101379.34
2022-08-03T14:13:02.972Z,101375.16
2022-08-03T14:15:37.879Z,101377.94
2022-08-03T14:18:15.702Z,101374.53
2022-08-03T14:20:56.793Z,101373.41
2022-08-03T14:23:26.422Z,101379.34
2022-08-03T14:25:55.490Z,101379.03
2022-08-03T14:28:24.525Z,101375.94
2022-08-03T14:30:56.056Z,101374.53
2022-08-03T14:33:24.689Z,101368.63
2022-08-03T14:35:53.308Z,101369.16
2022-08-03T14:38:22.324Z,101370.56
2022-08-03T14:40:51.628Z,101373.28
2022-08-03T14:43:21.327Z,101370.16
2022-08-03T14:45:52.197Z,101376.34
2022-08-03T14:50:30.491Z,101370.13
2022-08-03T14:51:10.268Z,101366.75
2022-08-03T14:53:38.231Z,101361.72
2022-08-03T14:56:10.366Z,101365.44
2022-08-03T14:58:39.367Z,101369.97
2022-08-03T15:02:03.057Z,101364.63
2022-08-03T15:03:58.112Z,101372.97
2022-08-03T15:06:26.085Z,101368.78
2022-08-03T15:09:21.515Z,101370.91
2022-08-03T15:11:44.854Z,101359.03
2022-08-03T15:14:15.545Z,101354.72
2022-08-03T15:16:46.192Z,101354.34
2022-08-03T15:20:01.173Z,101347.78
2022-08-03T15:22:09.082Z,101344.53
2022-08-03T15:24:38.602Z,101344.78
2022-08-03T15:27:10.366Z,101346.19
2022-08-03T15:30:07.758Z,101345.97
2022-08-03T15:32:33.999Z,101338.53
2022-08-03T15:35:05.271Z,101334.59
2022-08-03T15:37:33.361Z,101332.66
2022-08-03T15:40:05.456Z,101339.88
2022-08-03T15:42:34.563Z,101335.59
2022-08-03T15:45:02.990Z,101331.16
2022-08-03T15:47:31.210Z,101330.47
2022-08-03T15:49:59.141Z,101325.34
2022-08-03T15:52:28.873Z,101327.19
2022-08-03T15:54:56.842Z,101326.59
2022-08-03T15:57:24.924Z,101323.75
2022-08-03T15:59:53.155Z,101339.00
2022-08-03T16:02:21.425Z,101336.16
2022-08-03T16:04:49.359Z,101341.75
2022-08-03T16:07:37.576Z,101322.50
2022-08-03T16:10:08.350Z,101334.63
2022-08-03T16:12:39.228Z,101341.22
2022-08-03T16:15:12.251Z,101337.78
2022-08-03T16:17:41.373Z,101335.44
2022-08-03T16:20:31.352Z,101336.56
2022-08-03T16:23:11.390Z,101338.34
2022-08-03T16:25:49.176Z,101333.31
2022-08-03T16:28:21.936Z,101335.66
2022-08-03T16:30:51.265Z,101340.75
2022-08-03T16:33:21.671Z,101341.19
2022-08-03T16:35:54.132Z,101335.75
2022-08-03T16:38:24.942Z,101336.38
2022-08-03T16:40:56.388Z,101332.28
2022-08-03T16:43:27.752Z,101336.81
2022-08-03T16:45:57.533Z,101330.59
2022-08-03T16:48:29.080Z,101334.34
2022-08-03T16:50:58.996Z,101334.63
2022-08-03T16:53:33.732Z,101343.63
2022-08-03T16:56:25.178Z,101348.16
2022-08-03T16:58:57.168Z,101342.28
2022-08-03T17:01:35.671Z,101335.34
2022-08-03T17:04:12.110Z,101347.50
2022-08-03T17:06:46.411Z,101347.41
2022-08-03T17:09:20.768Z,101351.16
2022-08-03T17:11:52.479Z,101345.16
2022-08-03T17:14:29.327Z,101343.38
2022-08-03T17:17:01.588Z,101343.44
2022-08-03T17:19:33.096Z,101353.38
2022-08-03T17:22:10.607Z,101355.97
2022-08-03T17:24:42.577Z,101354.50
2022-08-03T17:28:41.875Z,101351.53
2022-08-03T17:30:13.505Z,101355.19
2022-08-03T17:32:57.119Z,101361.38
2022-08-03T17:35:36.709Z,101361.16
2022-08-03T17:38:12.078Z,101366.81
2022-08-03T17:40:50.220Z,101367.38
2022-08-03T17:44:13.511Z,101366.94
2022-08-03T17:46:16.903Z,101363.44
2022-08-03T17:48:50.612Z,101371.78
2022-08-03T17:51:29.110Z,101371.59
2022-08-03T17:54:18.336Z,101385.00
2022-08-03T17:56:58.921Z,101382.31
2022-08-03T18:00:02.762Z,101378.47
2022-08-03T18:03:03.838Z,101384.25
2022-08-03T18:06:11.533Z,101379.06
2022-08-03T18:08:28.500Z,101380.28
2022-08-03T18:11:03.363Z,101383.53
2022-08-03T18:13:45.275Z,101384.22
2022-08-03T18:16:35.659Z,101382.66
2022-08-03T18:19:14.267Z,101388.41
2022-08-03T18:22:02.766Z,101389.63
2022-08-03T18:24:34.732Z,101377.91
2022-08-03T18:27:12.975Z,101379.06
2022-08-03T18:29:45.139Z,101387.53
2022-08-03T18:32:19.682Z,101387.09
2022-08-03T18:34:53.489Z,101378.09
2022-08-03T18:37:25.431Z,101373.66
2022-08-03T18:39:57.949Z,101376.50
2022-08-03T18:42:27.064Z,101378.47
2022-08-03T18:44:56.743Z,101379.31
2022-08-03T18:47:50.654Z,101383.81
2022-08-03T18:50:29.472Z,101371.19
2022-08-03T18:53:19.452Z,101378.22
2022-08-03T18:56:02.309Z,101385.53
2022-08-03T18:58:38.775Z,101379.38
2022-08-03T19:01:59.875Z,101378.22
2022-08-03T19:04:12.625Z,101386.06
2022-08-03T19:06:45.011Z,101388.28
2022-08-03T19:09:20.726Z,101387.09
2022-08-03T19:12:13.303Z,101389.59
2022-08-03T19:14:48.298Z,101388.97
2022-08-03T19:17:21.377Z,101383.06
2022-08-03T19:19:52.935Z,101390.59
2022-08-03T19:22:22.368Z,101391.06
2022-08-03T19:24:55.190Z,101385.69
2022-08-03T19:27:26.921Z,101382.63
2022-08-03T19:30:01.236Z,101390.16
2022-08-03T19:32:33.593Z,101376.13
2022-08-03T19:35:05.224Z,101387.34
2022-08-03T19:37:42.098Z,101383.09
2022-08-03T19:40:12.443Z,101387.03
2022-08-03T19:42:46.393Z,101385.38
2022-08-03T19:45:22.330Z,101383.38
2022-08-03T19:48:14.366Z,101389.28
2022-08-03T19:50:44.893Z,101384.22
2022-08-03T19:53:14.129Z,101386.44
2022-08-03T19:55:48.801Z,101388.13
2022-08-03T19:58:28.760Z,101379.44
2022-08-03T20:00:57.627Z,101384.72
2022-08-03T20:03:28.012Z,101388.38
2022-08-03T20:06:17.040Z,101388.63
2022-08-03T20:08:45.159Z,101386.97
2022-08-03T20:11:16.908Z,101384.97
2022-08-03T20:13:48.261Z,101388.06
2022-08-03T20:16:16.766Z,101384.41
2022-08-03T20:18:45.584Z,101379.34
2022-08-03T20:21:18.920Z,101376.25
2022-08-03T20:24:01.789Z,101378.75
2022-08-03T20:26:33.556Z,101377.06
2022-08-03T20:29:09.107Z,101377.06
2022-08-03T20:31:38.622Z,101374.00
2022-08-03T20:34:09.123Z,101371.75
2022-08-03T20:36:38.675Z,101372.28
2022-08-03T20:39:07.705Z,101365.56
2022-08-03T20:41:37.109Z,101373.66
2022-08-03T20:44:06.826Z,101379.25
2022-08-03T20:46:50.231Z,101380.06
2022-08-03T20:49:23.861Z,101374.44
2022-08-03T20:51:53.945Z,101380.28
2022-08-03T20:54:30.664Z,101381.16
2022-08-03T20:57:03.577Z,101380.53
2022-08-03T20:59:46.734Z,101382.47
2022-08-03T21:02:19.870Z,101381.38
2022-08-03T21:04:57.475Z,101374.38
2022-08-03T21:08:05.368Z,101372.97
2022-08-03T21:10:18.101Z,101368.22
2022-08-03T21:12:52.724Z,101373.81
2022-08-03T21:16:06.547Z,101367.97
2022-08-03T21:18:15.580Z,101365.69
2022-08-03T21:20:47.346Z,101360.38
2022-08-03T21:23:35.127Z,101358.72
2022-08-03T21:26:09.206Z,101357.28
2022-08-03T21:28:39.115Z,101346.91
2022-08-03T21:31:08.542Z,101352.81
2022-08-03T21:33:37.049Z,101350.25
2022-08-03T21:36:07.861Z,101350.56
2022-08-03T21:38:55.723Z,101344.66
2022-08-03T21:41:29.018Z,101340.16
2022-08-03T21:44:00.255Z,101343.50
2022-08-03T21:46:34.514Z,101339.28
2022-08-03T21:50:05.026Z,101332.78
2022-08-03T21:52:01.214Z,101332.75
2022-08-03T21:54:39.588Z,101337.50
2022-08-03T21:57:17.863Z,101332.38
2022-08-03T21:59:57.101Z,101323.13
2022-08-03T22:02:31.531Z,101330.63
2022-08-03T22:05:04.899Z,101326.53
2022-08-03T22:07:39.286Z,101328.72
2022-08-03T22:10:12.664Z,101327.56
2022-08-03T22:12:46.856Z,101323.66
2022-08-03T22:15:16.343Z,101319.16
2022-08-03T22:17:54.748Z,101325.34
2022-08-03T22:20:29.348Z,101322.59
2022-08-03T22:23:09.872Z,101320.66
2022-08-03T22:25:42.927Z,101323.75
2022-08-03T22:28:16.705Z,101318.41
2022-08-03T22:30:47.774Z,101322.91
2022-08-03T22:33:19.104Z,101317.31
2022-08-03T22:35:52.574Z,101319.00
2022-08-03T22:38:22.389Z,101313.94
2022-08-03T22:40:53.464Z,101320.88
2022-08-03T22:43:26.310Z,101315.28
2022-08-03T22:46:09.160Z,101311.94
2022-08-03T22:48:42.833Z,101313.63
2022-08-03T22:51:13.939Z,101320.88
2022-08-03T22:53:47.000Z,101304.31
2022-08-03T22:56:20.829Z,101316.88
2022-08-03T22:58:53.100Z,101308.94
2022-08-03T23:01:27.037Z,101312.84
2022-08-03T23:04:06.057Z,101308.63
2022-08-03T23:06:39.849Z,101301.31
2022-08-03T23:09:12.159Z,101298.53
2022-08-03T23:11:47.957Z,101302.72
2022-08-03T23:14:21.798Z,101309.16
2022-08-03T23:16:58.221Z,101304.09
2022-08-03T23:19:30.220Z,101302.03
2022-08-03T23:22:05.866Z,101313.13
2022-08-03T23:24:38.597Z,101301.56
2022-08-03T23:27:14.119Z,101301.50
2022-08-03T23:29:46.993Z,101302.22
2022-08-03T23:32:19.128Z,101305.09
2022-08-03T23:35:09.559Z,101302.63
2022-08-03T23:38:21.634Z,101302.59
2022-08-03T23:40:31.069Z,101301.84
2022-08-03T23:43:03.081Z,101313.69
2022-08-03T23:45:35.722Z,101308.69
2022-08-03T23:48:03.877Z,101305.38
2022-08-03T23:50:42.462Z,101297.25
2022-08-03T23:53:17.980Z,101296.69
2022-08-03T23:56:02.042Z,101295.44
2022-08-03T23:58:44.986Z,101295.31
